sensor_id;sensor_type;location;lat;lon;timestamp;P1;durP1;ratioP1;P2;durP2;ratioP2
41705;SDS011;27385;51.096;17.190;2023-10-31T00:01:54;12.50;;;2.60;;
41705;SDS011;27385;51.096;17.190;2023-10-31T00:04:26;9.90;;;2.60;;
41705;SDS011;27385;51.096;17.190;2023-10-31T00:06:54;12.70;;;3.30;;
41705;SDS011;27385;51.096;17.190;2023-10-31T00:09:23;10.30;;;2.10;;
41705;SDS011;27385;51.096;17.190;2023-10-31T00:11:51;12.00;;;2.20;;
41705;SDS011;27385;51.096;17.190;2023-10-31T00:14:19;13.10;;;2.30;;
41705;SDS011;27385;51.096;17.190;2023-10-31T00:16:47;11.80;;;2.50;;
41705;SDS011;27385;51.096;17.190;2023-10-31T00:19:15;17.50;;;3.00;;
41705;SDS011;27385;51.096;17.190;2023-10-31T00:21:44;14.00;;;2.80;;
41705;SDS011;27385;51.096;17.190;2023-10-31T00:24:12;12.30;;;2.30;;
41705;SDS011;27385;51.096;17.190;2023-10-31T00:26:40;10.50;;;2.30;;
41705;SDS011;27385;51.096;17.190;2023-10-31T00:29:08;12.30;;;2.50;;
41705;SDS011;27385;51.096;17.190;2023-10-31T00:31:36;10.90;;;2.10;;
41705;SDS011;27385;51.096;17.190;2023-10-31T00:34:07;9.20;;;2.10;;
41705;SDS011;27385;51.096;17.190;2023-10-31T00:36:35;13.90;;;2.00;;
41705;SDS011;27385;51.096;17.190;2023-10-31T00:39:03;10.50;;;1.60;;
41705;SDS011;27385;51.096;17.190;2023-10-31T00:41:33;9.00;;;2.50;;
41705;SDS011;27385;51.096;17.190;2023-10-31T00:44:03;9.30;;;2.20;;
41705;SDS011;27385;51.096;17.190;2023-10-31T00:46:31;13.00;;;1.80;;
41705;SDS011;27385;51.096;17.190;2023-10-31T00:48:59;8.30;;;1.50;;
41705;SDS011;27385;51.096;17.190;2023-10-31T00:51:28;14.70;;;1.80;;
41705;SDS011;27385;51.096;17.190;2023-10-31T00:53:56;9.10;;;1.40;;
41705;SDS011;27385;51.096;17.190;2023-10-31T00:56:24;13.10;;;1.40;;
41705;SDS011;27385;51.096;17.190;2023-10-31T00:58:52;13.20;;;2.20;;
41705;SDS011;27385;51.096;17.190;2023-10-31T01:01:20;7.90;;;1.20;;
41705;SDS011;27385;51.096;17.190;2023-10-31T01:03:48;10.60;;;1.70;;
41705;SDS011;27385;51.096;17.190;2023-10-31T01:06:17;9.10;;;2.70;;
41705;SDS011;27385;51.096;17.190;2023-10-31T01:08:45;8.20;;;1.70;;
41705;SDS011;27385;51.096;17.190;2023-10-31T01:11:14;11.90;;;1.80;;
41705;SDS011;27385;51.096;17.190;2023-10-31T01:13:42;7.60;;;1.70;;
41705;SDS011;27385;51.096;17.190;2023-10-31T01:16:10;7.90;;;1.50;;
41705;SDS011;27385;51.096;17.190;2023-10-31T01:18:38;8.20;;;1.60;;
41705;SDS011;27385;51.096;17.190;2023-10-31T01:21:07;11.30;;;2.40;;
41705;SDS011;27385;51.096;17.190;2023-10-31T01:23:35;9.80;;;1.60;;
41705;SDS011;27385;51.096;17.190;2023-10-31T01:26:03;8.70;;;1.50;;
41705;SDS011;27385;51.096;17.190;2023-10-31T01:28:32;12.10;;;1.40;;
41705;SDS011;27385;51.096;17.190;2023-10-31T01:30:59;12.30;;;1.50;;
41705;SDS011;27385;51.096;17.190;2023-10-31T01:33:28;10.80;;;2.00;;
41705;SDS011;27385;51.096;17.190;2023-10-31T01:35:56;14.30;;;2.80;;
41705;SDS011;27385;51.096;17.190;2023-10-31T01:38:27;18.30;;;3.90;;
41705;SDS011;27385;51.096;17.190;2023-10-31T01:40:55;16.60;;;3.30;;
41705;SDS011;27385;51.096;17.190;2023-10-31T01:43:32;13.50;;;2.40;;
41705;SDS011;27385;51.096;17.190;2023-10-31T01:46:01;14.00;;;2.00;;
41705;SDS011;27385;51.096;17.190;2023-10-31T01:48:30;10.70;;;1.80;;
41705;SDS011;27385;51.096;17.190;2023-10-31T01:50:59;12.80;;;2.40;;
41705;SDS011;27385;51.096;17.190;2023-10-31T01:53:30;10.80;;;2.00;;
41705;SDS011;27385;51.096;17.190;2023-10-31T01:58:29;12.80;;;1.50;;
41705;SDS011;27385;51.096;17.190;2023-10-31T02:00:59;14.70;;;1.80;;
41705;SDS011;27385;51.096;17.190;2023-10-31T02:03:28;13.20;;;2.10;;
41705;SDS011;27385;51.096;17.190;2023-10-31T02:05:57;13.00;;;1.40;;
41705;SDS011;27385;51.096;17.190;2023-10-31T02:08:25;8.70;;;1.40;;
41705;SDS011;27385;51.096;17.190;2023-10-31T02:10:53;7.50;;;1.40;;
41705;SDS011;27385;51.096;17.190;2023-10-31T02:13:21;6.00;;;1.10;;
41705;SDS011;27385;51.096;17.190;2023-10-31T02:15:50;9.70;;;1.70;;
41705;SDS011;27385;51.096;17.190;2023-10-31T02:18:18;6.80;;;1.50;;
41705;SDS011;27385;51.096;17.190;2023-10-31T02:20:47;11.80;;;1.80;;
41705;SDS011;27385;51.096;17.190;2023-10-31T02:23:15;9.70;;;1.50;;
41705;SDS011;27385;51.096;17.190;2023-10-31T02:25:44;13.90;;;2.40;;
41705;SDS011;27385;51.096;17.190;2023-10-31T02:28:12;8.00;;;1.50;;
41705;SDS011;27385;51.096;17.190;2023-10-31T02:30:40;10.70;;;1.60;;
41705;SDS011;27385;51.096;17.190;2023-10-31T02:33:10;9.40;;;1.60;;
41705;SDS011;27385;51.096;17.190;2023-10-31T02:35:39;9.90;;;1.20;;
41705;SDS011;27385;51.096;17.190;2023-10-31T02:38:07;10.90;;;1.70;;
41705;SDS011;27385;51.096;17.190;2023-10-31T02:40:35;10.40;;;1.50;;
41705;SDS011;27385;51.096;17.190;2023-10-31T02:43:03;8.00;;;1.20;;
41705;SDS011;27385;51.096;17.190;2023-10-31T02:45:31;12.30;;;1.80;;
41705;SDS011;27385;51.096;17.190;2023-10-31T02:47:59;11.10;;;1.80;;
41705;SDS011;27385;51.096;17.190;2023-10-31T02:50:27;9.00;;;1.60;;
41705;SDS011;27385;51.096;17.190;2023-10-31T02:52:56;9.40;;;1.30;;
41705;SDS011;27385;51.096;17.190;2023-10-31T02:55:24;11.60;;;1.50;;
41705;SDS011;27385;51.096;17.190;2023-10-31T02:57:52;10.90;;;1.30;;
41705;SDS011;27385;51.096;17.190;2023-10-31T03:00:20;7.90;;;1.30;;
41705;SDS011;27385;51.096;17.190;2023-10-31T03:02:48;6.80;;;1.00;;
41705;SDS011;27385;51.096;17.190;2023-10-31T03:05:17;8.50;;;1.00;;
41705;SDS011;27385;51.096;17.190;2023-10-31T03:07:45;12.60;;;1.40;;
41705;SDS011;27385;51.096;17.190;2023-10-31T03:10:14;5.70;;;1.00;;
41705;SDS011;27385;51.096;17.190;2023-10-31T03:12:44;6.70;;;0.90;;
41705;SDS011;27385;51.096;17.190;2023-10-31T03:15:12;9.00;;;1.10;;
41705;SDS011;27385;51.096;17.190;2023-10-31T03:17:40;7.20;;;1.20;;
41705;SDS011;27385;51.096;17.190;2023-10-31T03:20:09;5.40;;;0.90;;
41705;SDS011;27385;51.096;17.190;2023-10-31T03:22:38;7.20;;;0.90;;
41705;SDS011;27385;51.096;17.190;2023-10-31T03:25:07;4.40;;;0.90;;
41705;SDS011;27385;51.096;17.190;2023-10-31T03:27:35;6.00;;;0.70;;
41705;SDS011;27385;51.096;17.190;2023-10-31T03:30:04;10.30;;;1.20;;
41705;SDS011;27385;51.096;17.190;2023-10-31T03:32:34;3.70;;;0.70;;
41705;SDS011;27385;51.096;17.190;2023-10-31T03:35:03;8.20;;;0.90;;
41705;SDS011;27385;51.096;17.190;2023-10-31T03:37:32;6.50;;;0.70;;
41705;SDS011;27385;51.096;17.190;2023-10-31T03:40:00;7.60;;;0.90;;
41705;SDS011;27385;51.096;17.190;2023-10-31T03:42:28;3.80;;;0.60;;
41705;SDS011;27385;51.096;17.190;2023-10-31T03:44:56;4.80;;;0.80;;
41705;SDS011;27385;51.096;17.190;2023-10-31T03:47:24;5.60;;;0.50;;
41705;SDS011;27385;51.096;17.190;2023-10-31T03:49:53;7.00;;;0.80;;
41705;SDS011;27385;51.096;17.190;2023-10-31T03:52:21;7.30;;;0.70;;
41705;SDS011;27385;51.096;17.190;2023-10-31T03:54:49;6.60;;;0.80;;
41705;SDS011;27385;51.096;17.190;2023-10-31T03:57:17;4.70;;;0.70;;
41705;SDS011;27385;51.096;17.190;2023-10-31T03:59:45;5.40;;;0.60;;
41705;SDS011;27385;51.096;17.190;2023-10-31T04:02:13;8.90;;;0.60;;
41705;SDS011;27385;51.096;17.190;2023-10-31T04:04:42;4.30;;;0.60;;
41705;SDS011;27385;51.096;17.190;2023-10-31T04:07:10;6.50;;;0.80;;
41705;SDS011;27385;51.096;17.190;2023-10-31T04:09:38;3.90;;;0.80;;
41705;SDS011;27385;51.096;17.190;2023-10-31T04:12:06;5.50;;;0.70;;
41705;SDS011;27385;51.096;17.190;2023-10-31T04:14:35;10.30;;;0.80;;
41705;SDS011;27385;51.096;17.190;2023-10-31T04:17:05;5.70;;;0.60;;
41705;SDS011;27385;51.096;17.190;2023-10-31T04:19:33;4.40;;;0.70;;
41705;SDS011;27385;51.096;17.190;2023-10-31T04:22:01;2.90;;;0.70;;
41705;SDS011;27385;51.096;17.190;2023-10-31T04:24:29;5.30;;;0.80;;
41705;SDS011;27385;51.096;17.190;2023-10-31T04:26:58;6.40;;;0.80;;
41705;SDS011;27385;51.096;17.190;2023-10-31T04:29:26;13.40;;;0.90;;
41705;SDS011;27385;51.096;17.190;2023-10-31T04:31:54;6.90;;;0.70;;
41705;SDS011;27385;51.096;17.190;2023-10-31T04:34:22;6.40;;;0.70;;
41705;SDS011;27385;51.096;17.190;2023-10-31T04:36:51;6.70;;;0.90;;
41705;SDS011;27385;51.096;17.190;2023-10-31T04:39:19;3.90;;;0.80;;
41705;SDS011;27385;51.096;17.190;2023-10-31T04:41:47;6.00;;;0.60;;
41705;SDS011;27385;51.096;17.190;2023-10-31T04:44:17;5.20;;;0.80;;
41705;SDS011;27385;51.096;17.190;2023-10-31T04:46:45;5.50;;;0.80;;
41705;SDS011;27385;51.096;17.190;2023-10-31T04:49:14;7.00;;;0.90;;
41705;SDS011;27385;51.096;17.190;2023-10-31T04:51:42;4.20;;;0.80;;
41705;SDS011;27385;51.096;17.190;2023-10-31T04:54:10;8.40;;;1.00;;
41705;SDS011;27385;51.096;17.190;2023-10-31T04:56:38;9.50;;;0.70;;
41705;SDS011;27385;51.096;17.190;2023-10-31T04:59:07;10.10;;;1.10;;
41705;SDS011;27385;51.096;17.190;2023-10-31T05:01:35;5.50;;;1.00;;
41705;SDS011;27385;51.096;17.190;2023-10-31T05:04:04;6.60;;;1.00;;
41705;SDS011;27385;51.096;17.190;2023-10-31T05:06:32;6.80;;;0.90;;
41705;SDS011;27385;51.096;17.190;2023-10-31T05:09:00;5.90;;;0.90;;
41705;SDS011;27385;51.096;17.190;2023-10-31T05:11:29;5.90;;;0.90;;
41705;SDS011;27385;51.096;17.190;2023-10-31T05:13:57;6.20;;;0.70;;
41705;SDS011;27385;51.096;17.190;2023-10-31T05:16:25;6.00;;;0.70;;
41705;SDS011;27385;51.096;17.190;2023-10-31T05:18:56;4.80;;;0.80;;
41705;SDS011;27385;51.096;17.190;2023-10-31T05:21:26;11.90;;;1.10;;
41705;SDS011;27385;51.096;17.190;2023-10-31T05:23:54;8.80;;;1.00;;
41705;SDS011;27385;51.096;17.190;2023-10-31T05:26:22;6.70;;;0.90;;
41705;SDS011;27385;51.096;17.190;2023-10-31T05:28:51;7.40;;;0.90;;
41705;SDS011;27385;51.096;17.190;2023-10-31T05:31:19;6.50;;;1.20;;
41705;SDS011;27385;51.096;17.190;2023-10-31T05:33:48;6.20;;;0.70;;
41705;SDS011;27385;51.096;17.190;2023-10-31T05:36:19;4.90;;;1.30;;
41705;SDS011;27385;51.096;17.190;2023-10-31T05:38:48;5.50;;;0.70;;
41705;SDS011;27385;51.096;17.190;2023-10-31T05:41:17;8.30;;;0.80;;
41705;SDS011;27385;51.096;17.190;2023-10-31T05:43:45;7.10;;;1.00;;
41705;SDS011;27385;51.096;17.190;2023-10-31T05:46:14;9.50;;;1.00;;
41705;SDS011;27385;51.096;17.190;2023-10-31T05:48:42;8.10;;;0.70;;
41705;SDS011;27385;51.096;17.190;2023-10-31T05:51:12;4.80;;;0.70;;
41705;SDS011;27385;51.096;17.190;2023-10-31T05:56:11;3.90;;;0.60;;
41705;SDS011;27385;51.096;17.190;2023-10-31T05:58:40;6.10;;;0.90;;
41705;SDS011;27385;51.096;17.190;2023-10-31T06:01:08;7.30;;;0.70;;
41705;SDS011;27385;51.096;17.190;2023-10-31T06:03:37;4.70;;;0.80;;
41705;SDS011;27385;51.096;17.190;2023-10-31T06:06:08;8.00;;;1.10;;
41705;SDS011;27385;51.096;17.190;2023-10-31T06:08:37;4.00;;;0.90;;
41705;SDS011;27385;51.096;17.190;2023-10-31T06:11:06;7.30;;;0.80;;
41705;SDS011;27385;51.096;17.190;2023-10-31T06:13:34;9.40;;;1.00;;
41705;SDS011;27385;51.096;17.190;2023-10-31T06:16:02;7.80;;;1.00;;
41705;SDS011;27385;51.096;17.190;2023-10-31T06:21:01;6.10;;;0.70;;
41705;SDS011;27385;51.096;17.190;2023-10-31T06:23:29;2.80;;;0.80;;
41705;SDS011;27385;51.096;17.190;2023-10-31T06:25:57;7.50;;;0.90;;
41705;SDS011;27385;51.096;17.190;2023-10-31T06:28:26;15.80;;;4.10;;
41705;SDS011;27385;51.096;17.190;2023-10-31T06:30:54;9.60;;;1.90;;
41705;SDS011;27385;51.096;17.190;2023-10-31T06:33:22;9.10;;;1.20;;
41705;SDS011;27385;51.096;17.190;2023-10-31T06:35:50;7.50;;;1.50;;
41705;SDS011;27385;51.096;17.190;2023-10-31T06:38:20;10.90;;;1.00;;
41705;SDS011;27385;51.096;17.190;2023-10-31T06:40:48;7.00;;;1.00;;
41705;SDS011;27385;51.096;17.190;2023-10-31T06:43:17;5.50;;;0.90;;
41705;SDS011;27385;51.096;17.190;2023-10-31T06:45:45;6.40;;;1.00;;
41705;SDS011;27385;51.096;17.190;2023-10-31T06:48:13;5.10;;;0.60;;
41705;SDS011;27385;51.096;17.190;2023-10-31T06:50:41;5.10;;;0.80;;
41705;SDS011;27385;51.096;17.190;2023-10-31T06:53:09;4.80;;;0.80;;
41705;SDS011;27385;51.096;17.190;2023-10-31T06:55:39;6.00;;;1.40;;
41705;SDS011;27385;51.096;17.190;2023-10-31T06:58:07;5.80;;;1.00;;
41705;SDS011;27385;51.096;17.190;2023-10-31T07:00:35;4.70;;;0.80;;
41705;SDS011;27385;51.096;17.190;2023-10-31T07:03:04;5.20;;;1.10;;
41705;SDS011;27385;51.096;17.190;2023-10-31T07:05:38;3.00;;;0.80;;
41705;SDS011;27385;51.096;17.190;2023-10-31T07:08:06;7.20;;;1.30;;
41705;SDS011;27385;51.096;17.190;2023-10-31T07:10:36;11.20;;;1.70;;
41705;SDS011;27385;51.096;17.190;2023-10-31T07:13:04;11.00;;;2.00;;
41705;SDS011;27385;51.096;17.190;2023-10-31T07:15:32;14.90;;;2.60;;
41705;SDS011;27385;51.096;17.190;2023-10-31T07:18:05;9.20;;;1.50;;
41705;SDS011;27385;51.096;17.190;2023-10-31T07:20:34;9.60;;;1.20;;
41705;SDS011;27385;51.096;17.190;2023-10-31T07:23:03;6.00;;;0.90;;
41705;SDS011;27385;51.096;17.190;2023-10-31T07:28:01;10.50;;;0.90;;
41705;SDS011;27385;51.096;17.190;2023-10-31T07:30:29;9.60;;;1.00;;
41705;SDS011;27385;51.096;17.190;2023-10-31T07:32:57;4.60;;;1.10;;
41705;SDS011;27385;51.096;17.190;2023-10-31T07:35:25;5.90;;;1.10;;
41705;SDS011;27385;51.096;17.190;2023-10-31T07:37:54;7.10;;;0.90;;
41705;SDS011;27385;51.096;17.190;2023-10-31T07:40:22;4.40;;;0.90;;
41705;SDS011;27385;51.096;17.190;2023-10-31T07:42:50;4.00;;;0.80;;
41705;SDS011;27385;51.096;17.190;2023-10-31T07:45:18;4.20;;;0.90;;
41705;SDS011;27385;51.096;17.190;2023-10-31T07:47:46;4.80;;;0.70;;
41705;SDS011;27385;51.096;17.190;2023-10-31T07:50:14;2.80;;;0.80;;
41705;SDS011;27385;51.096;17.190;2023-10-31T07:52:42;4.60;;;0.90;;
41705;SDS011;27385;51.096;17.190;2023-10-31T07:57:40;5.30;;;0.30;;
41705;SDS011;27385;51.096;17.190;2023-10-31T08:00:10;4.00;;;0.60;;
41705;SDS011;27385;51.096;17.190;2023-10-31T08:02:39;3.10;;;0.60;;
41705;SDS011;27385;51.096;17.190;2023-10-31T08:05:09;2.80;;;0.50;;
41705;SDS011;27385;51.096;17.190;2023-10-31T08:07:37;2.90;;;0.50;;
41705;SDS011;27385;51.096;17.190;2023-10-31T08:10:06;3.70;;;0.50;;
41705;SDS011;27385;51.096;17.190;2023-10-31T08:12:37;1.70;;;0.40;;
41705;SDS011;27385;51.096;17.190;2023-10-31T08:15:07;2.90;;;0.30;;
41705;SDS011;27385;51.096;17.190;2023-10-31T08:17:37;3.00;;;0.50;;
41705;SDS011;27385;51.096;17.190;2023-10-31T08:20:07;1.90;;;0.50;;
41705;SDS011;27385;51.096;17.190;2023-10-31T08:22:38;1.90;;;0.40;;
41705;SDS011;27385;51.096;17.190;2023-10-31T08:25:09;2.90;;;0.60;;
41705;SDS011;27385;51.096;17.190;2023-10-31T08:27:38;2.10;;;0.40;;
41705;SDS011;27385;51.096;17.190;2023-10-31T08:30:07;2.90;;;0.30;;
41705;SDS011;27385;51.096;17.190;2023-10-31T08:32:37;1.20;;;0.40;;
41705;SDS011;27385;51.096;17.190;2023-10-31T08:35:08;2.50;;;0.30;;
41705;SDS011;27385;51.096;17.190;2023-10-31T08:37:37;1.70;;;0.20;;
41705;SDS011;27385;51.096;17.190;2023-10-31T08:40:06;1.20;;;0.20;;
41705;SDS011;27385;51.096;17.190;2023-10-31T08:42:37;2.70;;;0.40;;
41705;SDS011;27385;51.096;17.190;2023-10-31T08:45:06;1.90;;;0.30;;
41705;SDS011;27385;51.096;17.190;2023-10-31T08:47:41;2.40;;;0.40;;
41705;SDS011;27385;51.096;17.190;2023-10-31T08:50:09;2.20;;;0.30;;
41705;SDS011;27385;51.096;17.190;2023-10-31T08:52:38;1.40;;;0.30;;
41705;SDS011;27385;51.096;17.190;2023-10-31T08:55:08;1.00;;;0.30;;
41705;SDS011;27385;51.096;17.190;2023-10-31T08:57:36;1.50;;;0.40;;
41705;SDS011;27385;51.096;17.190;2023-10-31T09:00:06;2.80;;;0.50;;
41705;SDS011;27385;51.096;17.190;2023-10-31T09:02:36;7.30;;;0.50;;
41705;SDS011;27385;51.096;17.190;2023-10-31T09:05:04;4.70;;;0.40;;
41705;SDS011;27385;51.096;17.190;2023-10-31T09:07:33;2.60;;;0.30;;
41705;SDS011;27385;51.096;17.190;2023-10-31T09:10:02;2.60;;;0.50;;
41705;SDS011;27385;51.096;17.190;2023-10-31T09:12:31;2.00;;;0.30;;
41705;SDS011;27385;51.096;17.190;2023-10-31T09:15:00;1.60;;;0.40;;
41705;SDS011;27385;51.096;17.190;2023-10-31T09:17:28;4.00;;;0.40;;
41705;SDS011;27385;51.096;17.190;2023-10-31T09:19:57;2.70;;;0.40;;
41705;SDS011;27385;51.096;17.190;2023-10-31T09:22:28;5.40;;;0.50;;
41705;SDS011;27385;51.096;17.190;2023-10-31T09:24:56;2.40;;;0.50;;
41705;SDS011;27385;51.096;17.190;2023-10-31T09:27:26;2.30;;;0.40;;
41705;SDS011;27385;51.096;17.190;2023-10-31T09:29:54;2.90;;;0.40;;
41705;SDS011;27385;51.096;17.190;2023-10-31T09:32:26;2.40;;;0.40;;
41705;SDS011;27385;51.096;17.190;2023-10-31T09:34:54;2.90;;;0.40;;
41705;SDS011;27385;51.096;17.190;2023-10-31T09:37:23;3.20;;;0.40;;
41705;SDS011;27385;51.096;17.190;2023-10-31T09:39:52;5.50;;;0.40;;
41705;SDS011;27385;51.096;17.190;2023-10-31T09:42:20;4.20;;;0.40;;
41705;SDS011;27385;51.096;17.190;2023-10-31T09:44:48;2.60;;;1.00;;
41705;SDS011;27385;51.096;17.190;2023-10-31T09:47:17;2.70;;;0.50;;
41705;SDS011;27385;51.096;17.190;2023-10-31T09:49:46;1.40;;;0.20;;
41705;SDS011;27385;51.096;17.190;2023-10-31T09:52:15;1.80;;;0.30;;
41705;SDS011;27385;51.096;17.190;2023-10-31T09:54:47;3.10;;;0.50;;
41705;SDS011;27385;51.096;17.190;2023-10-31T09:57:15;2.30;;;0.30;;
41705;SDS011;27385;51.096;17.190;2023-10-31T09:59:44;2.00;;;0.20;;
41705;SDS011;27385;51.096;17.190;2023-10-31T10:02:13;1.80;;;0.30;;
41705;SDS011;27385;51.096;17.190;2023-10-31T10:04:41;2.90;;;0.40;;
41705;SDS011;27385;51.096;17.190;2023-10-31T10:07:13;2.00;;;0.30;;
41705;SDS011;27385;51.096;17.190;2023-10-31T10:09:45;3.70;;;0.40;;
41705;SDS011;27385;51.096;17.190;2023-10-31T10:12:15;3.40;;;0.40;;
41705;SDS011;27385;51.096;17.190;2023-10-31T10:14:47;3.90;;;0.40;;
41705;SDS011;27385;51.096;17.190;2023-10-31T10:17:17;1.90;;;0.30;;
41705;SDS011;27385;51.096;17.190;2023-10-31T10:19:50;1.60;;;0.30;;
41705;SDS011;27385;51.096;17.190;2023-10-31T10:22:33;3.70;;;0.60;;
41705;SDS011;27385;51.096;17.190;2023-10-31T10:25:10;2.70;;;0.40;;
41705;SDS011;27385;51.096;17.190;2023-10-31T10:27:41;2.60;;;0.60;;
41705;SDS011;27385;51.096;17.190;2023-10-31T10:30:17;2.90;;;0.60;;
41705;SDS011;27385;51.096;17.190;2023-10-31T10:32:49;4.30;;;0.40;;
41705;SDS011;27385;51.096;17.190;2023-10-31T10:35:18;1.80;;;0.40;;
41705;SDS011;27385;51.096;17.190;2023-10-31T10:37:46;1.70;;;0.40;;
41705;SDS011;27385;51.096;17.190;2023-10-31T10:40:19;2.70;;;0.40;;
41705;SDS011;27385;51.096;17.190;2023-10-31T10:42:48;2.10;;;0.40;;
41705;SDS011;27385;51.096;17.190;2023-10-31T10:45:23;3.30;;;0.50;;
41705;SDS011;27385;51.096;17.190;2023-10-31T10:50:26;1.50;;;0.30;;
41705;SDS011;27385;51.096;17.190;2023-10-31T10:53:00;2.60;;;0.40;;
41705;SDS011;27385;51.096;17.190;2023-10-31T10:55:36;2.20;;;0.40;;
41705;SDS011;27385;51.096;17.190;2023-10-31T10:58:08;1.80;;;0.20;;
41705;SDS011;27385;51.096;17.190;2023-10-31T11:00:40;2.50;;;0.20;;
41705;SDS011;27385;51.096;17.190;2023-10-31T11:03:10;2.00;;;0.30;;
41705;SDS011;27385;51.096;17.190;2023-10-31T11:05:39;0.80;;;0.20;;
41705;SDS011;27385;51.096;17.190;2023-10-31T11:08:10;0.60;;;0.20;;
41705;SDS011;27385;51.096;17.190;2023-10-31T11:10:39;2.00;;;0.20;;
41705;SDS011;27385;51.096;17.190;2023-10-31T11:13:08;4.40;;;0.40;;
41705;SDS011;27385;51.096;17.190;2023-10-31T11:15:37;1.90;;;0.20;;
41705;SDS011;27385;51.096;17.190;2023-10-31T11:18:08;1.60;;;0.20;;
41705;SDS011;27385;51.096;17.190;2023-10-31T11:20:40;1.10;;;0.20;;
41705;SDS011;27385;51.096;17.190;2023-10-31T11:23:08;2.50;;;0.20;;
41705;SDS011;27385;51.096;17.190;2023-10-31T11:25:37;1.00;;;0.10;;
41705;SDS011;27385;51.096;17.190;2023-10-31T11:28:11;1.80;;;0.20;;
41705;SDS011;27385;51.096;17.190;2023-10-31T11:30:41;2.30;;;0.40;;
41705;SDS011;27385;51.096;17.190;2023-10-31T11:33:14;2.90;;;0.30;;
41705;SDS011;27385;51.096;17.190;2023-10-31T11:35:48;1.70;;;0.30;;
41705;SDS011;27385;51.096;17.190;2023-10-31T11:38:30;5.60;;;0.50;;
41705;SDS011;27385;51.096;17.190;2023-10-31T11:41:00;3.50;;;0.60;;
41705;SDS011;27385;51.096;17.190;2023-10-31T11:43:39;12.30;;;0.60;;
41705;SDS011;27385;51.096;17.190;2023-10-31T11:46:23;4.00;;;0.70;;
41705;SDS011;27385;51.096;17.190;2023-10-31T11:48:54;2.90;;;0.50;;
41705;SDS011;27385;51.096;17.190;2023-10-31T11:51:23;3.60;;;0.60;;
41705;SDS011;27385;51.096;17.190;2023-10-31T11:53:51;1.00;;;0.30;;
41705;SDS011;27385;51.096;17.190;2023-10-31T11:56:20;2.80;;;0.60;;
41705;SDS011;27385;51.096;17.190;2023-10-31T11:59:00;1.50;;;0.30;;
41705;SDS011;27385;51.096;17.190;2023-10-31T12:01:30;2.70;;;0.30;;
41705;SDS011;27385;51.096;17.190;2023-10-31T12:03:58;3.80;;;0.50;;
41705;SDS011;27385;51.096;17.190;2023-10-31T12:06:27;1.90;;;0.30;;
41705;SDS011;27385;51.096;17.190;2023-10-31T12:08:59;0.60;;;0.20;;
41705;SDS011;27385;51.096;17.190;2023-10-31T12:11:31;1.70;;;0.20;;
41705;SDS011;27385;51.096;17.190;2023-10-31T12:14:00;1.70;;;0.20;;
41705;SDS011;27385;51.096;17.190;2023-10-31T12:16:32;5.30;;;0.30;;
41705;SDS011;27385;51.096;17.190;2023-10-31T12:19:01;1.10;;;0.10;;
41705;SDS011;27385;51.096;17.190;2023-10-31T12:21:44;3.30;;;0.30;;
41705;SDS011;27385;51.096;17.190;2023-10-31T12:24:15;1.80;;;0.20;;
41705;SDS011;27385;51.096;17.190;2023-10-31T12:26:44;1.80;;;0.20;;
41705;SDS011;27385;51.096;17.190;2023-10-31T12:29:13;2.10;;;0.20;;
41705;SDS011;27385;51.096;17.190;2023-10-31T12:31:47;2.70;;;0.20;;
41705;SDS011;27385;51.096;17.190;2023-10-31T12:34:19;1.40;;;0.20;;
41705;SDS011;27385;51.096;17.190;2023-10-31T12:36:55;1.50;;;0.30;;
41705;SDS011;27385;51.096;17.190;2023-10-31T12:39:25;1.20;;;0.20;;
41705;SDS011;27385;51.096;17.190;2023-10-31T12:41:56;1.20;;;0.20;;
41705;SDS011;27385;51.096;17.190;2023-10-31T12:44:29;1.60;;;0.10;;
41705;SDS011;27385;51.096;17.190;2023-10-31T12:46:58;3.20;;;0.20;;
41705;SDS011;27385;51.096;17.190;2023-10-31T12:49:26;2.80;;;0.10;;
41705;SDS011;27385;51.096;17.190;2023-10-31T12:51:58;2.80;;;0.20;;
41705;SDS011;27385;51.096;17.190;2023-10-31T12:54:31;1.20;;;0.20;;
41705;SDS011;27385;51.096;17.190;2023-10-31T12:57:01;1.20;;;0.10;;
41705;SDS011;27385;51.096;17.190;2023-10-31T12:59:32;1.20;;;0.20;;
41705;SDS011;27385;51.096;17.190;2023-10-31T13:04:31;0.50;;;0.10;;
41705;SDS011;27385;51.096;17.190;2023-10-31T13:07:00;0.40;;;0.00;;
41705;SDS011;27385;51.096;17.190;2023-10-31T13:09:33;0.80;;;0.10;;
41705;SDS011;27385;51.096;17.190;2023-10-31T13:12:03;3.20;;;0.10;;
41705;SDS011;27385;51.096;17.190;2023-10-31T13:17:00;0.20;;;0.10;;
41705;SDS011;27385;51.096;17.190;2023-10-31T13:19:29;0.90;;;0.10;;
41705;SDS011;27385;51.096;17.190;2023-10-31T13:21:57;1.90;;;0.10;;
41705;SDS011;27385;51.096;17.190;2023-10-31T13:24:25;0.60;;;0.10;;
41705;SDS011;27385;51.096;17.190;2023-10-31T13:26:53;2.00;;;0.10;;
41705;SDS011;27385;51.096;17.190;2023-10-31T13:29:22;0.50;;;0.10;;
41705;SDS011;27385;51.096;17.190;2023-10-31T13:31:51;1.10;;;0.10;;
41705;SDS011;27385;51.096;17.190;2023-10-31T13:34:19;0.60;;;0.10;;
41705;SDS011;27385;51.096;17.190;2023-10-31T13:36:49;2.90;;;0.20;;
41705;SDS011;27385;51.096;17.190;2023-10-31T13:39:18;0.50;;;0.10;;
41705;SDS011;27385;51.096;17.190;2023-10-31T13:41:49;0.30;;;0.10;;
41705;SDS011;27385;51.096;17.190;2023-10-31T13:44:17;0.80;;;0.10;;
41705;SDS011;27385;51.096;17.190;2023-10-31T13:46:45;4.10;;;0.10;;
41705;SDS011;27385;51.096;17.190;2023-10-31T13:49:16;0.20;;;0.00;;
41705;SDS011;27385;51.096;17.190;2023-10-31T13:51:46;2.60;;;0.20;;
41705;SDS011;27385;51.096;17.190;2023-10-31T13:54:15;1.00;;;0.10;;
41705;SDS011;27385;51.096;17.190;2023-10-31T13:56:44;0.70;;;0.10;;
41705;SDS011;27385;51.096;17.190;2023-10-31T13:59:13;2.00;;;0.10;;
41705;SDS011;27385;51.096;17.190;2023-10-31T14:01:41;0.40;;;0.00;;
41705;SDS011;27385;51.096;17.190;2023-10-31T14:04:09;0.80;;;0.10;;
41705;SDS011;27385;51.096;17.190;2023-10-31T14:06:37;1.00;;;0.10;;
41705;SDS011;27385;51.096;17.190;2023-10-31T14:09:06;1.60;;;0.10;;
41705;SDS011;27385;51.096;17.190;2023-10-31T14:11:35;1.00;;;0.20;;
41705;SDS011;27385;51.096;17.190;2023-10-31T14:14:04;1.20;;;0.10;;
41705;SDS011;27385;51.096;17.190;2023-10-31T14:16:33;2.20;;;0.10;;
41705;SDS011;27385;51.096;17.190;2023-10-31T14:19:01;1.50;;;0.10;;
41705;SDS011;27385;51.096;17.190;2023-10-31T14:21:30;1.20;;;0.20;;
41705;SDS011;27385;51.096;17.190;2023-10-31T14:23:58;2.10;;;0.20;;
41705;SDS011;27385;51.096;17.190;2023-10-31T14:26:27;2.40;;;0.10;;
41705;SDS011;27385;51.096;17.190;2023-10-31T14:28:55;2.40;;;0.20;;
41705;SDS011;27385;51.096;17.190;2023-10-31T14:31:23;3.00;;;0.20;;
41705;SDS011;27385;51.096;17.190;2023-10-31T14:33:52;2.20;;;0.40;;
41705;SDS011;27385;51.096;17.190;2023-10-31T14:36:20;2.70;;;0.20;;
41705;SDS011;27385;51.096;17.190;2023-10-31T14:38:48;1.10;;;0.20;;
41705;SDS011;27385;51.096;17.190;2023-10-31T14:41:16;1.60;;;0.10;;
41705;SDS011;27385;51.096;17.190;2023-10-31T14:43:47;4.00;;;0.20;;
41705;SDS011;27385;51.096;17.190;2023-10-31T14:46:16;4.60;;;0.40;;
41705;SDS011;27385;51.096;17.190;2023-10-31T14:48:44;2.80;;;0.40;;
41705;SDS011;27385;51.096;17.190;2023-10-31T14:51:12;1.70;;;0.40;;
41705;SDS011;27385;51.096;17.190;2023-10-31T14:53:44;7.80;;;1.20;;
41705;SDS011;27385;51.096;17.190;2023-10-31T14:56:14;10.60;;;1.60;;
41705;SDS011;27385;51.096;17.190;2023-10-31T14:58:42;8.40;;;1.60;;
41705;SDS011;27385;51.096;17.190;2023-10-31T15:01:16;9.40;;;1.20;;
41705;SDS011;27385;51.096;17.190;2023-10-31T15:03:44;5.60;;;1.50;;
41705;SDS011;27385;51.096;17.190;2023-10-31T15:06:12;5.60;;;0.70;;